createdAt,value
2022-08-16T00:01:26.511Z,17.90
2022-08-16T00:03:57.614Z,17.90
2022-08-16T00:06:25.217Z,17.90
2022-08-16T00:08:52.827Z,17.80
2022-08-16T00:11:23.442Z,17.70
2022-08-16T00:13:55.498Z,17.70
2022-08-16T00:17:05.778Z,17.70
2022-08-16T00:19:19.325Z,17.70
2022-08-16T00:21:53.288Z,17.70
2022-08-16T00:24:31.431Z,17.70
2022-08-16T00:27:06.201Z,17.60
2022-08-16T00:29:35.807Z,17.60
2022-08-16T00:32:07.434Z,17.60
2022-08-16T00:34:44.139Z,17.50
2022-08-16T00:37:57.296Z,17.40
2022-08-16T00:40:33.669Z,17.40
2022-08-16T00:43:12.298Z,17.40
2022-08-16T00:46:33.289Z,17.40
2022-08-16T00:48:54.535Z,17.40
2022-08-16T00:51:24.146Z,17.40
2022-08-16T00:53:54.323Z,17.30
2022-08-16T00:56:58.054Z,17.30
2022-08-16T00:59:16.036Z,17.20
2022-08-16T01:01:46.390Z,17.20
2022-08-16T01:04:29.245Z,17.20
2022-08-16T01:07:04.924Z,17.20
2022-08-16T01:09:42.779Z,17.10
2022-08-16T01:12:26.666Z,17.10
2022-08-16T01:15:00.843Z,17.10
2022-08-16T01:17:30.189Z,17.00
2022-08-16T01:20:24.486Z,17.00
2022-08-16T01:23:08.694Z,17.00
2022-08-16T01:25:44.872Z,16.90
2022-08-16T01:28:30.914Z,16.90
2022-08-16T01:31:00.695Z,16.80
2022-08-16T01:33:33.477Z,16.80
2022-08-16T01:36:09.507Z,16.80
2022-08-16T01:38:56.812Z,16.70
2022-08-16T01:41:31.438Z,16.80
2022-08-16T01:44:03.860Z,16.70
2022-08-16T01:46:43.518Z,16.80
2022-08-16T01:49:35.969Z,16.70
2022-08-16T01:52:29.603Z,16.70
2022-08-16T01:55:12.556Z,16.70
2022-08-16T01:57:53.490Z,16.70
2022-08-16T02:00:29.163Z,16.70
2022-08-16T02:03:00.435Z,16.70
2022-08-16T02:05:30.419Z,16.60
2022-08-16T02:07:59.127Z,16.60
2022-08-16T02:10:28.234Z,16.60
2022-08-16T02:13:00.813Z,16.60
2022-08-16T02:15:35.577Z,16.60
2022-08-16T02:18:12.440Z,16.60
2022-08-16T02:20:45.535Z,16.60
2022-08-16T02:23:14.315Z,16.50
2022-08-16T02:25:52.295Z,16.50
2022-08-16T02:28:26.190Z,16.50
2022-08-16T02:30:57.230Z,16.50
2022-08-16T02:33:44.489Z,16.50
2022-08-16T02:36:47.308Z,16.40
2022-08-16T02:39:14.910Z,16.40
2022-08-16T02:41:53.320Z,16.40
2022-08-16T02:44:26.992Z,16.40
2022-08-16T02:46:57.579Z,16.40
2022-08-16T02:49:32.226Z,16.30
2022-08-16T02:52:25.030Z,16.30
2022-08-16T02:55:05.052Z,16.30
2022-08-16T02:57:34.657Z,16.20
2022-08-16T03:00:33.548Z,16.20
2022-08-16T03:02:57.124Z,16.20
2022-08-16T03:05:26.088Z,16.10
2022-08-16T03:07:59.166Z,16.10
2022-08-16T03:10:33.733Z,16.10
2022-08-16T03:13:03.734Z,16.10
2022-08-16T03:15:41.017Z,16.00
2022-08-16T03:18:12.622Z,16.00
2022-08-16T03:21:00.287Z,16.00
2022-08-16T03:23:35.942Z,15.90
2022-08-16T03:26:05.527Z,15.80
2022-08-16T03:28:33.269Z,15.80
2022-08-16T03:31:03.732Z,15.80
2022-08-16T03:33:32.343Z,15.80
2022-08-16T03:36:19.899Z,15.80
2022-08-16T03:38:57.677Z,15.80
2022-08-16T03:41:29.558Z,15.80
2022-08-16T03:44:44.783Z,15.70
2022-08-16T03:47:03.660Z,15.70
2022-08-16T03:49:37.147Z,15.70
2022-08-16T03:52:08.920Z,15.70
2022-08-16T03:54:53.608Z,15.70
2022-08-16T03:57:31.720Z,15.60
2022-08-16T04:00:35.908Z,15.60
2022-08-16T04:03:09.155Z,15.50
2022-08-16T04:05:46.730Z,15.50
2022-08-16T04:08:23.241Z,15.50
2022-08-16T04:10:55.460Z,15.60
2022-08-16T04:13:59.961Z,15.60
2022-08-16T04:16:26.817Z,15.60
2022-08-16T04:19:06.441Z,15.60
2022-08-16T04:21:45.750Z,15.60
2022-08-16T04:24:17.739Z,15.50
2022-08-16T04:26:46.193Z,15.60
2022-08-16T04:29:24.591Z,15.60
2022-08-16T04:31:57.975Z,15.50
2022-08-16T04:34:34.258Z,15.60
2022-08-16T04:37:02.862Z,15.60
2022-08-16T04:39:46.553Z,15.60
2022-08-16T04:42:25.764Z,15.60
2022-08-16T04:44:56.240Z,15.60
2022-08-16T04:47:35.371Z,15.70
2022-08-16T04:50:12.065Z,15.70
2022-08-16T04:52:59.732Z,15.70
2022-08-16T04:55:38.440Z,15.80
2022-08-16T04:58:44.082Z,15.80
2022-08-16T05:01:01.670Z,15.80
2022-08-16T05:03:33.363Z,15.90
2022-08-16T05:06:05.128Z,15.90
2022-08-16T05:08:37.523Z,16.00
2022-08-16T05:11:18.202Z,16.00
2022-08-16T05:13:48.802Z,16.00
2022-08-16T05:16:29.870Z,16.10
2022-08-16T05:19:11.379Z,16.20
2022-08-16T05:21:55.535Z,16.30
2022-08-16T05:24:25.346Z,16.30
2022-08-16T05:26:54.970Z,16.40
2022-08-16T05:29:59.918Z,16.40
2022-08-16T05:32:32.973Z,16.50
2022-08-16T05:35:11.266Z,16.50
2022-08-16T05:37:43.701Z,16.60
2022-08-16T05:40:16.334Z,16.70
2022-08-16T05:42:47.668Z,16.80
2022-08-16T05:45:21.387Z,16.80
2022-08-16T05:48:00.398Z,16.80
2022-08-16T05:50:53.111Z,16.90
2022-08-16T05:53:24.381Z,17.00
2022-08-16T05:56:19.481Z,17.10
2022-08-16T05:58:49.770Z,17.10
2022-08-16T06:01:20.405Z,17.20
2022-08-16T06:03:52.983Z,17.20
2022-08-16T06:06:32.642Z,17.30
2022-08-16T06:09:04.260Z,17.30
2022-08-16T06:11:33.258Z,17.30
2022-08-16T06:14:04.451Z,17.50
2022-08-16T06:16:39.066Z,17.50
2022-08-16T06:19:06.955Z,17.70
2022-08-16T06:21:39.451Z,17.80
2022-08-16T06:24:53.294Z,18.00
2022-08-16T06:26:59.103Z,18.20
2022-08-16T06:29:32.199Z,18.40
2022-08-16T06:32:01.394Z,18.60
2022-08-16T06:34:56.247Z,18.80
2022-08-16T06:37:19.092Z,19.00
2022-08-16T06:39:49.506Z,19.30
2022-08-16T06:42:47.575Z,19.50
2022-08-16T06:45:43.693Z,19.80
2022-08-16T06:48:32.527Z,20.00
2022-08-16T06:51:05.602Z,20.30
2022-08-16T06:53:36.413Z,20.60
2022-08-16T06:56:14.536Z,20.80
2022-08-16T06:59:09.133Z,21.00
2022-08-16T07:01:54.151Z,21.30
2022-08-16T07:04:33.122Z,21.50
2022-08-16T07:07:16.411Z,21.70
2022-08-16T07:09:45.009Z,21.90
2022-08-16T07:12:15.450Z,22.10
2022-08-16T07:14:46.235Z,22.30
2022-08-16T07:17:19.841Z,22.40
2022-08-16T07:20:03.950Z,22.60
2022-08-16T07:22:58.798Z,22.70
2022-08-16T07:25:33.830Z,22.90
2022-08-16T07:28:12.132Z,23.10
2022-08-16T07:30:50.863Z,23.30
2022-08-16T07:33:53.184Z,23.50
2022-08-16T07:36:22.108Z,23.60
2022-08-16T07:38:53.069Z,23.70
2022-08-16T07:41:21.698Z,23.90
2022-08-16T07:43:56.302Z,24.00
2022-08-16T07:46:39.538Z,24.10
2022-08-16T10:51:34.419Z,27.80
2022-08-16T10:54:29.414Z,27.70
2022-08-16T10:57:04.241Z,27.50
2022-08-16T10:59:43.981Z,27.60
2022-08-16T11:03:00.793Z,27.50
2022-08-16T11:05:10.774Z,27.40
2022-08-16T11:07:53.574Z,27.30
2022-08-16T11:19:11.963Z,28.60
2022-08-16T11:24:41.997Z,28.20
2022-08-16T11:27:35.433Z,28.30
2022-08-16T11:30:09.018Z,28.40
2022-08-16T11:32:40.287Z,28.30
2022-08-16T11:35:43.336Z,28.30
2022-08-16T11:38:47.492Z,28.60
2022-08-16T11:41:05.347Z,28.80
2022-08-16T11:43:37.510Z,28.80
2022-08-16T11:46:45.519Z,28.80
2022-08-16T11:48:56.244Z,28.70
2022-08-16T11:51:23.844Z,28.70
2022-08-16T11:53:51.817Z,28.60
2022-08-16T11:56:39.621Z,28.60
2022-08-16T11:59:07.719Z,28.50
2022-08-16T12:01:44.401Z,28.20
2022-08-16T12:04:25.100Z,28.20
2022-08-16T12:06:54.754Z,28.10
2022-08-16T12:09:29.632Z,28.10
2022-08-16T12:12:02.993Z,28.00
2022-08-16T12:14:35.355Z,28.00
2022-08-16T12:17:09.365Z,27.90
2022-08-16T12:19:38.757Z,27.80
2022-08-16T12:22:19.075Z,27.90
2022-08-16T12:24:51.019Z,28.00
2022-08-16T12:27:23.311Z,28.10
2022-08-16T12:29:54.170Z,28.10
2022-08-16T12:32:35.680Z,28.10
2022-08-16T12:35:13.618Z,28.00
2022-08-16T12:37:43.185Z,28.00
2022-08-16T12:40:25.219Z,28.10
2022-08-16T12:42:58.955Z,28.10
2022-08-16T12:45:31.197Z,28.10
2022-08-16T12:48:34.148Z,28.30
2022-08-16T12:51:04.644Z,28.30
2022-08-16T12:53:41.829Z,28.50
2022-08-16T12:56:14.715Z,28.60
2022-08-16T12:58:49.392Z,28.60
2022-08-16T13:01:22.384Z,28.60
2022-08-16T13:04:08.326Z,28.60
2022-08-16T13:06:41.279Z,28.60
2022-08-16T13:09:28.881Z,28.60
2022-08-16T13:12:03.693Z,28.60
2022-08-16T13:14:39.238Z,28.60
2022-08-16T13:17:13.998Z,28.70
2022-08-16T13:22:42.328Z,28.80
2022-08-16T13:25:18.970Z,29.00
2022-08-16T13:28:02.604Z,29.10
2022-08-16T13:30:45.140Z,29.10
2022-08-16T13:33:18.231Z,29.00
2022-08-16T13:35:56.235Z,28.80
2022-08-16T13:38:35.171Z,28.70
2022-08-16T13:41:08.396Z,28.60
2022-08-16T13:43:39.143Z,28.60
2022-08-16T13:46:07.069Z,28.60
2022-08-16T13:48:44.154Z,28.70
2022-08-16T13:51:15.733Z,28.70
2022-08-16T13:53:54.183Z,28.70
2022-08-16T13:56:36.830Z,28.70
2022-08-16T13:59:20.249Z,28.70
2022-08-16T14:01:56.003Z,28.70
2022-08-16T14:04:26.844Z,28.70
2022-08-16T14:06:57.957Z,28.80
2022-08-16T14:09:27.205Z,28.90
2022-08-16T14:12:01.218Z,29.00
2022-08-16T14:14:36.839Z,29.00
2022-08-16T14:17:09.778Z,29.10
2022-08-16T14:19:37.043Z,29.20
2022-08-16T14:22:30.110Z,29.40
2022-08-16T14:25:03.192Z,29.40
2022-08-16T14:27:31.018Z,29.50
2022-08-16T14:29:59.637Z,29.40
2022-08-16T14:32:33.950Z,29.30
2022-08-16T14:35:05.867Z,29.30
2022-08-16T14:37:36.461Z,29.40
2022-08-16T14:40:10.112Z,29.30
2022-08-16T14:42:40.783Z,29.30
2022-08-16T14:45:14.297Z,29.20
2022-08-16T14:47:43.908Z,29.10
2022-08-16T14:50:14.300Z,29.00
2022-08-16T14:52:55.170Z,29.00
2022-08-16T14:55:25.779Z,29.10
2022-08-16T14:57:54.285Z,29.10
2022-08-16T15:00:32.990Z,29.00
2022-08-16T15:03:04.520Z,29.00
2022-08-16T15:05:32.448Z,29.00
2022-08-16T15:08:00.315Z,29.10
2022-08-16T15:10:31.880Z,29.10
2022-08-16T15:13:02.088Z,29.00
2022-08-16T15:15:30.696Z,29.00
2022-08-16T15:18:01.503Z,28.80
2022-08-16T15:20:32.894Z,28.80
2022-08-16T15:23:04.064Z,28.90
2022-08-16T15:25:35.151Z,28.80
2022-08-16T15:28:05.573Z,28.80
2022-08-16T15:30:44.768Z,28.80
2022-08-16T15:33:25.387Z,28.80
2022-08-16T15:35:55.397Z,28.80
2022-08-16T15:38:57.918Z,28.80
2022-08-16T15:41:42.889Z,28.70
2022-08-16T15:44:15.631Z,28.70
2022-08-16T15:46:56.633Z,28.70
2022-08-16T15:49:38.158Z,28.70
2022-08-16T15:52:20.857Z,28.60
2022-08-16T15:54:57.259Z,28.60
2022-08-16T15:57:26.835Z,28.50
2022-08-16T15:59:57.749Z,28.40
2022-08-16T16:02:39.111Z,28.30
2022-08-16T16:05:10.157Z,28.20
2022-08-16T16:07:40.850Z,28.10
2022-08-16T16:10:29.460Z,28.10
2022-08-16T16:13:00.703Z,28.00
2022-08-16T16:15:36.275Z,28.00
2022-08-16T16:18:05.170Z,28.00
2022-08-16T16:20:39.032Z,28.00
2022-08-16T16:23:10.714Z,28.00
2022-08-16T16:25:39.777Z,28.00
2022-08-16T16:29:06.346Z,28.00
2022-08-16T16:31:06.067Z,27.90
2022-08-16T16:33:36.421Z,28.00
2022-08-16T16:36:05.691Z,28.00
2022-08-16T16:38:35.942Z,28.00
2022-08-16T16:41:13.532Z,27.90
2022-08-16T16:43:44.148Z,27.90
2022-08-16T16:46:32.822Z,27.90
2022-08-16T16:49:10.448Z,27.90
2022-08-16T16:51:41.279Z,27.80
2022-08-16T16:54:13.227Z,27.80
2022-08-16T16:56:49.874Z,27.80
2022-08-16T16:59:20.961Z,27.70
2022-08-16T17:01:57.546Z,27.70
2022-08-16T17:04:39.268Z,27.60
2022-08-16T17:07:10.759Z,27.60
2022-08-16T17:09:40.600Z,27.50
2022-08-16T17:12:23.641Z,27.50
2022-08-16T17:14:58.804Z,27.40
2022-08-16T17:17:27.382Z,27.30
2022-08-16T17:19:59.206Z,27.20
2022-08-16T17:22:33.040Z,27.10
2022-08-16T17:25:07.313Z,27.10
2022-08-16T17:27:38.902Z,27.00
2022-08-16T17:30:44.768Z,27.00
2022-08-16T17:33:15.112Z,26.90
2022-08-16T17:35:55.683Z,26.70
2022-08-16T17:38:36.948Z,26.70
2022-08-16T17:41:13.286Z,26.50
2022-08-16T17:43:44.390Z,26.40
2022-08-16T17:46:41.527Z,26.20
2022-08-16T17:49:03.164Z,26.10
2022-08-16T17:51:30.736Z,26.00
2022-08-16T17:53:58.337Z,25.80
2022-08-16T17:56:26.957Z,25.60
2022-08-16T17:58:56.564Z,25.60
2022-08-16T18:01:28.217Z,25.50
2022-08-16T18:04:09.212Z,25.40
2022-08-16T18:06:39.462Z,25.30
2022-08-16T18:09:09.083Z,25.20
2022-08-16T18:11:42.831Z,25.10
2022-08-16T18:14:12.312Z,24.90
2022-08-16T18:16:41.904Z,24.80
2022-08-16T18:19:11.551Z,24.70
2022-08-16T18:21:59.787Z,24.70
2022-08-16T18:24:27.835Z,24.60
2022-08-16T18:26:56.480Z,24.50
2022-08-16T18:29:46.194Z,24.40
2022-08-16T18:32:23.089Z,24.40
2022-08-16T18:34:54.276Z,24.30
2022-08-16T18:37:23.995Z,24.20
2022-08-16T18:39:51.673Z,24.10
2022-08-16T18:42:19.200Z,24.10
2022-08-16T18:44:48.823Z,24.00
2022-08-16T18:47:17.432Z,23.90
2022-08-16T18:49:45.019Z,23.90
2022-08-16T18:52:25.025Z,23.70
2022-08-16T18:54:58.872Z,23.70
2022-08-16T18:57:30.936Z,23.70
2022-08-16T19:00:00.549Z,23.50
2022-08-16T19:02:57.230Z,23.50
2022-08-16T19:05:25.615Z,23.40
2022-08-16T19:07:54.448Z,23.40
2022-08-16T19:10:22.063Z,23.30
2022-08-16T19:12:49.875Z,23.30
2022-08-16T19:15:24.024Z,23.20
2022-08-16T19:17:52.554Z,23.10
2022-08-16T19:20:24.490Z,23.00
2022-08-16T19:23:05.073Z,22.90
2022-08-16T19:25:48.898Z,22.80
2022-08-16T19:28:50.663Z,22.70
2022-08-16T19:31:28.207Z,22.60
2022-08-16T19:33:56.994Z,22.60
2022-08-16T19:36:31.935Z,22.50
2022-08-16T19:39:05.101Z,22.40
2022-08-16T19:41:35.707Z,22.30
2022-08-16T19:44:04.263Z,22.30
2022-08-16T19:46:33.870Z,22.20
2022-08-16T19:49:01.462Z,22.20
2022-08-16T19:51:29.179Z,22.10
2022-08-16T19:53:56.647Z,22.10
2022-08-16T19:56:26.285Z,22.00
2022-08-16T19:59:18.079Z,22.00
2022-08-16T20:01:43.686Z,21.90
2022-08-16T20:04:14.851Z,21.80
2022-08-16T20:06:43.637Z,21.80
2022-08-16T20:09:15.401Z,21.70
2022-08-16T20:11:49.514Z,21.70
2022-08-16T20:14:24.418Z,21.60
2022-08-16T20:16:54.251Z,21.50
2022-08-16T20:19:21.841Z,21.50
2022-08-16T20:21:49.444Z,21.40
2022-08-16T20:24:33.608Z,21.30
2022-08-16T20:27:08.763Z,21.30
2022-08-16T20:29:39.521Z,21.20
2022-08-16T20:32:08.985Z,21.20
2022-08-16T20:34:36.586Z,21.10
2022-08-16T20:37:06.202Z,20.90
2022-08-16T20:39:33.875Z,20.80
2022-08-16T20:42:03.189Z,20.70
2022-08-16T20:44:33.010Z,20.70
2022-08-16T20:47:00.613Z,20.60
2022-08-16T20:49:29.202Z,20.60
2022-08-16T20:51:59.529Z,20.50
2022-08-16T20:54:29.447Z,20.50
2022-08-16T20:56:58.047Z,20.40
2022-08-16T20:59:25.630Z,20.40
2022-08-16T21:01:55.227Z,20.30
2022-08-16T21:04:27.873Z,20.30
2022-08-16T21:06:56.568Z,20.30
2022-08-16T21:09:30.082Z,20.30
2022-08-16T21:11:59.691Z,20.30
2022-08-16T21:14:29.294Z,20.20
2022-08-16T21:16:56.887Z,20.10
2022-08-16T21:19:26.558Z,20.10
2022-08-16T21:21:55.160Z,20.00
2022-08-16T21:24:22.721Z,20.00
2022-08-16T21:26:55.205Z,20.00
2022-08-16T21:29:25.104Z,19.90
2022-08-16T21:31:56.597Z,19.90
2022-08-16T21:34:24.194Z,19.90
2022-08-16T21:36:52.814Z,19.80
2022-08-16T21:39:21.394Z,19.80
2022-08-16T21:41:50.556Z,19.70
2022-08-16T21:44:18.652Z,19.60
2022-08-16T21:46:46.246Z,19.60
2022-08-16T21:49:15.860Z,19.60
2022-08-16T21:51:43.465Z,19.50
2022-08-16T21:54:12.056Z,19.50
2022-08-16T21:56:40.677Z,19.40
2022-08-16T21:59:11.295Z,19.40
2022-08-16T22:01:44.906Z,19.30
2022-08-16T22:04:36.532Z,19.30
2022-08-16T22:07:03.178Z,19.20
2022-08-16T22:09:31.783Z,19.20
2022-08-16T22:12:01.226Z,19.20
2022-08-16T22:14:28.999Z,19.10
2022-08-16T22:16:56.613Z,19.10
2022-08-16T22:19:24.174Z,19.20
2022-08-16T22:21:52.766Z,19.20
2022-08-16T22:24:20.390Z,19.20
2022-08-16T22:26:48.977Z,19.20
2022-08-16T22:29:16.588Z,19.10
2022-08-16T22:31:46.210Z,19.00
2022-08-16T22:34:14.804Z,18.90
2022-08-16T22:36:42.405Z,18.90
2022-08-16T22:39:13.023Z,18.80
2022-08-16T22:41:43.630Z,18.70
2022-08-16T22:44:11.219Z,18.70
2022-08-16T22:46:39.815Z,18.70
2022-08-16T22:49:10.241Z,18.60
2022-08-16T22:51:41.030Z,18.60
2022-08-16T22:54:45.823Z,18.60
2022-08-16T22:56:59.315Z,18.60
2022-08-16T22:59:29.937Z,18.50
2022-08-16T23:01:57.569Z,18.50
2022-08-16T23:04:26.114Z,18.40
2022-08-16T23:06:54.710Z,18.40
2022-08-16T23:09:22.296Z,18.40
2022-08-16T23:11:50.901Z,18.30
2022-08-16T23:14:20.496Z,18.30
2022-08-16T23:16:48.117Z,18.10
2022-08-16T23:19:17.726Z,18.10
2022-08-16T23:21:48.476Z,18.10
2022-08-16T23:24:17.757Z,18.00
2022-08-16T23:26:49.030Z,18.00
2022-08-16T23:29:25.508Z,18.00
2022-08-16T23:32:12.834Z,17.90
2022-08-16T23:34:41.422Z,17.80
2022-08-16T23:37:12.040Z,17.80
2022-08-16T23:39:39.677Z,17.80
2022-08-16T23:42:41.860Z,17.70
2022-08-16T23:45:09.000Z,17.70
2022-08-16T23:47:38.600Z,17.60
2022-08-16T23:50:06.199Z,17.60
2022-08-16T23:52:54.739Z,17.60
2022-08-16T23:55:24.475Z,17.50
2022-08-16T23:57:53.148Z,17.50
